Time;durP1;ratioP1;P1;durP2;ratioP2;P2;SDS_P1;SDS_P2;PMS_P1;PMS_P2;Temp;Humidity;BMP_temperature;BMP_pressure;BME280_temperature;BME280_humidity;BME280_pressure;Samples;Min_cycle;Max_cycle;Signal;HPM_P1;HPM_P2
2022/10/11 06:29:14;;;;;;;3.38;2.33;;;21.80;99.90;;;;;;6245374;22;20024;-93
2022/10/11 06:44:43;;;;;;;2.42;2.20;;;20.40;99.90;;;;;;6239313;22;20064;-93
2022/10/11 06:47:10;;;;;;;3.88;2.40;;;20.20;99.90;;;;;;6220819;23;20401;-82
2022/10/11 06:49:36;;;;;;;3.15;2.10;;;20.10;99.90;;;;;;6194719;23;20405;-82
2022/10/11 06:52:03;;;;;;;4.20;2.47;;;20.00;99.90;;;;;;6219912;23;20000;-82
2022/10/11 06:54:42;;;;;;;4.05;2.42;;;19.90;99.90;;;;;;6219748;23;20004;-82
2022/10/11 06:57:09;;;;;;;3.00;2.30;;;19.90;99.90;;;;;;6248471;23;20012;-81
2022/10/11 06:59:35;;;;;;;3.97;2.33;;;19.80;99.90;;;;;;6222268;23;20008;-81
2022/10/11 07:02:01;;;;;;;4.03;2.10;;;19.90;99.90;;;;;;6249700;23;20004;-84
2022/10/11 07:04:28;;;;;;;3.53;2.15;;;19.90;99.90;;;;;;6222904;23;20004;-82
2022/10/11 07:06:54;;;;;;;3.75;2.15;;;19.90;99.90;;;;;;6222399;23;20275;-82
2022/10/11 07:09:20;;;;;;;4.05;1.80;;;20.00;99.90;;;;;;6249502;23;20512;-81
2022/10/11 07:11:47;;;;;;;3.47;1.70;;;20.00;99.90;;;;;;6197279;23;20030;-81
2022/10/11 07:14:14;;;;;;;3.10;1.95;;;20.00;99.90;;;;;;6197256;23;20016;-83
2022/10/11 07:16:40;;;;;;;1.90;1.70;;;20.00;99.90;;;;;;6222245;23;20028;-83
2022/10/11 07:19:06;;;;;;;1.70;1.60;;;20.00;99.90;;;;;;6197062;23;20004;-81
2022/10/11 07:21:34;;;;;;;2.85;1.90;;;20.10;99.90;;;;;;6223024;23;19996;-83
2022/10/11 07:24:01;;;;;;;2.53;2.05;;;20.10;99.90;;;;;;6222861;23;20547;-82
2022/10/11 07:26:29;;;;;;;2.22;1.77;;;20.10;99.90;;;;;;6222420;23;20422;-84
2022/10/11 07:28:55;;;;;;;2.50;2.30;;;20.10;99.90;;;;;;6195105;23;20027;-84
2022/10/11 07:31:33;;;;;;;4.32;2.05;;;20.20;99.90;;;;;;6196413;23;20008;-90
2022/10/11 07:33:59;;;;;;;2.88;2.25;;;20.30;99.90;;;;;;6197299;23;20000;-87
2022/10/11 07:36:26;;;;;;;3.08;2.40;;;20.50;99.90;;;;;;6197979;23;20342;-88
2022/10/11 07:38:52;;;;;;;5.13;2.50;;;20.50;99.90;;;;;;6198643;23;20008;-88
2022/10/11 07:41:20;;;;;;;4.13;2.88;;;20.70;99.90;;;;;;6198086;23;20015;-81
2022/10/11 07:43:48;;;;;;;4.15;3.00;;;20.90;99.90;;;;;;6197932;23;20004;-89
2022/10/11 07:46:18;;;;;;;4.32;3.00;;;21.00;99.90;;;;;;6198176;23;20024;-83
2022/10/11 07:48:45;;;;;;;3.15;2.63;;;21.10;99.90;;;;;;6197841;23;20091;-87
2022/10/11 07:51:17;;;;;;;4.05;3.20;;;21.10;99.90;;;;;;6197826;23;20008;-88
2022/10/11 07:53:51;;;;;;;3.83;2.90;;;21.20;99.90;;;;;;6199079;23;20011;-90
2022/10/11 07:56:21;;;;;;;4.38;3.15;;;21.20;99.90;;;;;;6197459;23;20095;-87
2022/10/11 07:58:57;;;;;;;4.72;3.30;;;21.20;99.90;;;;;;6222987;23;20046;-90
2022/10/11 08:01:26;;;;;;;6.63;3.38;;;21.10;99.90;;;;;;6198651;23;20031;-90
2022/10/11 08:03:53;;;;;;;5.78;3.17;;;21.20;99.90;;;;;;6197627;23;20008;-89
2022/10/11 08:06:24;;;;;;;4.38;3.20;;;21.20;99.90;;;;;;6198010;23;20015;-89
2022/10/11 08:08:53;;;;;;;3.92;3.28;;;21.10;99.90;;;;;;6198476;23;20008;-91
2022/10/11 08:11:31;;;;;;;4.28;3.42;;;21.10;99.90;;;;;;6198342;23;20004;-90
2022/10/11 08:14:04;;;;;;;5.32;3.72;;;21.00;99.90;;;;;;6195514;23;20001;-90
2022/10/11 08:16:30;;;;;;;4.20;3.40;;;21.00;99.90;;;;;;6195270;23;20020;-91
2022/10/11 08:18:57;;;;;;;5.13;3.80;;;21.10;99.90;;;;;;6220565;23;20004;-90
2022/10/11 08:21:25;;;;;;;7.85;3.72;;;21.10;99.90;;;;;;6195625;23;20015;-91
2022/10/11 08:23:52;;;;;;;6.32;4.07;;;21.10;99.90;;;;;;6195421;23;20006;-92
2022/10/11 08:26:22;;;;;;;5.07;3.97;;;21.10;99.90;;;;;;6197245;23;20489;-93
2022/10/11 08:47:49;;;;;;;;;;;;;;;;;;;;;
2022/10/11 08:55:08;;;;;;;6.15;5.55;;;22.20;99.90;;;;;;6119168;23;20009;-94
2022/10/11 08:58:37;;;;;;;6.95;5.20;;;22.30;99.90;;;;;;6043787;23;20101;-94
2022/10/11 09:01:22;;;;;;;7.82;6.57;;;22.50;99.90;;;;;;5956615;24;20099;-93
2022/10/11 09:04:18;;;;;;;7.55;6.05;;;22.90;99.90;;;;;;6040542;23;20461;-93
2022/10/11 09:07:31;;;;;;;9.48;6.22;;;23.10;99.90;;;;;;6039403;23;20110;-94
2022/10/11 09:10:58;;;;;;;8.70;5.90;;;23.10;99.90;;;;;;6015438;23;20315;-94
2022/10/11 09:13:56;;;;;;;6.88;6.28;;;22.80;99.90;;;;;;6016795;23;20003;-93
2022/10/11 09:17:04;;;;;;;6.95;5.25;;;22.40;99.90;;;;;;5995060;23;20023;-94
2022/10/11 09:28:23;;;;;;;10.13;6.43;;;22.00;99.90;;;;;;6246054;22;20031;-93
2022/10/11 09:37:59;;;;;;;7.15;6.45;;;22.80;99.90;;;;;;6245750;22;20088;-93
2022/10/11 09:41:11;;;;;;;7.78;5.57;;;23.00;99.90;;;;;;6129253;23;20066;-93
2022/10/11 09:44:32;;;;;;;;;;;;;;;;;;;;;
2022/10/11 09:54:01;;;;;;;8.25;5.60;;;22.40;99.90;;;;;;6248821;22;20027;-92
2022/10/11 10:01:21;;;;;;;6.43;5.80;;;22.30;99.90;;;;;;5984404;24;20019;-92
2022/10/11 10:50:34;;;;;;;;;;;;;;;;;;;;;
2022/10/11 12:45:17;;;;;;;4.50;4.10;;;23.50;99.90;;;;;;6249274;23;20417;-92
2022/10/11 13:03:34;;;;;;;5.47;4.40;;;23.10;99.90;;;;;;6203458;22;20188;-93
2022/10/11 13:06:18;;;;;;;9.15;5.20;;;23.30;99.90;;;;;;6192392;23;20342;-92
2022/10/11 13:08:55;;;;;;;4.80;4.50;;;23.40;99.90;;;;;;6168257;23;20027;-92
2022/10/11 13:12:00;;;;;;;4.65;4.25;;;23.50;99.90;;;;;;6138434;23;20009;-92
2022/10/11 13:15:27;;;;;;;4.68;4.18;;;23.50;99.90;;;;;;6148800;23;20009;-93
2022/10/11 13:18:00;;;;;;;4.40;4.10;;;23.20;99.90;;;;;;6017087;23;20019;-91
2022/10/11 13:20:34;;;;;;;4.50;4.20;;;23.10;99.90;;;;;;6040368;23;20008;-91
2022/10/11 13:23:01;;;;;;;5.05;4.63;;;23.20;99.90;;;;;;6040780;23;20059;-92
2022/10/11 13:25:35;;;;;;;5.18;4.88;;;23.30;99.90;;;;;;6041204;23;20363;-92
2022/10/11 13:28:02;;;;;;;5.22;4.93;;;23.50;99.90;;;;;;6041820;23;20011;-92
2022/10/11 13:30:35;;;;;;;5.80;5.30;;;23.70;99.90;;;;;;6040901;23;20035;-91
2022/10/11 13:33:07;;;;;;;5.65;5.35;;;23.50;99.90;;;;;;6040144;23;20078;-93
2022/10/11 13:35:38;;;;;;;5.38;5.05;;;23.50;99.90;;;;;;6040290;23;20078;-94
2022/10/11 13:38:17;;;;;;;6.15;5.47;;;23.50;99.90;;;;;;6040884;23;20515;-94
2022/10/11 13:41:22;;;;;;;5.93;5.30;;;23.50;99.90;;;;;;6040159;23;20008;-93
2022/10/11 13:44:35;;;;;;;5.80;5.50;;;23.60;99.90;;;;;;5992377;23;20525;-92
2022/10/11 13:47:25;;;;;;;5.78;5.47;;;23.80;99.90;;;;;;5988590;23;20080;-94
2022/10/11 13:50:21;;;;;;;5.65;5.22;;;23.80;99.90;;;;;;6010305;23;20011;-93
2022/10/11 13:53:22;;;;;;;5.53;5.03;;;23.70;99.90;;;;;;5988438;23;20011;-92
2022/10/11 13:56:04;;;;;;;5.30;4.82;;;23.50;99.90;;;;;;6101599;23;20104;-95
2022/10/11 13:58:43;;;;;;;4.85;4.55;;;23.40;99.90;;;;;;6103523;23;20014;-92
2022/10/11 14:01:39;;;;;;;4.75;4.38;;;23.20;99.90;;;;;;6102109;23;20345;-92
